sensor_id;sensor_type;location;lat;lon;timestamp;temperature;humidity
24252;DHT22;12380;51.118;4.176;2023-07-02T00:01:13;17.20;99.90
24252;DHT22;12380;51.118;4.176;2023-07-02T00:03:39;17.20;99.90
24252;DHT22;12380;51.118;4.176;2023-07-02T00:06:05;17.30;99.90
24252;DHT22;12380;51.118;4.176;2023-07-02T00:08:30;17.20;99.90
24252;DHT22;12380;51.118;4.176;2023-07-02T00:10:56;17.30;99.90
24252;DHT22;12380;51.118;4.176;2023-07-02T00:13:22;17.30;99.90
24252;DHT22;12380;51.118;4.176;2023-07-02T00:15:47;17.30;99.90
24252;DHT22;12380;51.118;4.176;2023-07-02T00:18:13;17.30;99.90
24252;DHT22;12380;51.118;4.176;2023-07-02T00:20:42;17.30;99.90
24252;DHT22;12380;51.118;4.176;2023-07-02T00:23:08;17.20;99.90
24252;DHT22;12380;51.118;4.176;2023-07-02T00:25:35;17.20;99.90
24252;DHT22;12380;51.118;4.176;2023-07-02T00:28:01;17.20;99.90
24252;DHT22;12380;51.118;4.176;2023-07-02T00:30:27;17.00;99.90
24252;DHT22;12380;51.118;4.176;2023-07-02T00:32:53;17.00;99.90
24252;DHT22;12380;51.118;4.176;2023-07-02T00:35:18;17.20;99.90
24252;DHT22;12380;51.118;4.176;2023-07-02T00:37:44;17.10;99.90
24252;DHT22;12380;51.118;4.176;2023-07-02T00:40:10;17.10;99.90
24252;DHT22;12380;51.118;4.176;2023-07-02T00:42:35;17.20;99.90
24252;DHT22;12380;51.118;4.176;2023-07-02T00:45:01;17.10;99.90
24252;DHT22;12380;51.118;4.176;2023-07-02T00:47:30;17.20;99.90
24252;DHT22;12380;51.118;4.176;2023-07-02T00:49:58;17.30;99.90
24252;DHT22;12380;51.118;4.176;2023-07-02T00:52:24;17.30;99.90
24252;DHT22;12380;51.118;4.176;2023-07-02T00:54:51;17.20;99.90
24252;DHT22;12380;51.118;4.176;2023-07-02T00:57:16;17.30;99.90
24252;DHT22;12380;51.118;4.176;2023-07-02T00:59:42;17.30;99.90
24252;DHT22;12380;51.118;4.176;2023-07-02T01:02:08;17.20;99.90
24252;DHT22;12380;51.118;4.176;2023-07-02T01:04:33;17.40;99.90
24252;DHT22;12380;51.118;4.176;2023-07-02T01:06:59;17.20;99.90
24252;DHT22;12380;51.118;4.176;2023-07-02T01:09:24;17.20;99.90
24252;DHT22;12380;51.118;4.176;2023-07-02T01:11:56;17.30;99.90
24252;DHT22;12380;51.118;4.176;2023-07-02T01:14:26;17.20;99.90
24252;DHT22;12380;51.118;4.176;2023-07-02T01:16:56;17.20;99.90
24252;DHT22;12380;51.118;4.176;2023-07-02T01:22:07;17.20;99.90
24252;DHT22;12380;51.118;4.176;2023-07-02T01:24:33;17.30;99.90
24252;DHT22;12380;51.118;4.176;2023-07-02T01:26:58;17.20;99.90
24252;DHT22;12380;51.118;4.176;2023-07-02T01:29:28;17.00;99.90
24252;DHT22;12380;51.118;4.176;2023-07-02T01:31:54;17.00;99.90
24252;DHT22;12380;51.118;4.176;2023-07-02T01:34:19;17.10;99.90
24252;DHT22;12380;51.118;4.176;2023-07-02T01:36:47;17.20;99.90
24252;DHT22;12380;51.118;4.176;2023-07-02T01:39:13;17.00;99.90
24252;DHT22;12380;51.118;4.176;2023-07-02T01:41:44;16.90;99.90
24252;DHT22;12380;51.118;4.176;2023-07-02T01:44:09;17.00;99.90
24252;DHT22;12380;51.118;4.176;2023-07-02T01:46:36;17.00;99.90
24252;DHT22;12380;51.118;4.176;2023-07-02T01:49:01;16.90;99.90
24252;DHT22;12380;51.118;4.176;2023-07-02T01:51:27;16.80;99.90
24252;DHT22;12380;51.118;4.176;2023-07-02T01:53:52;16.90;99.90
24252;DHT22;12380;51.118;4.176;2023-07-02T01:56:18;16.70;99.90
24252;DHT22;12380;51.118;4.176;2023-07-02T01:58:44;16.70;99.90
24252;DHT22;12380;51.118;4.176;2023-07-02T02:01:09;16.70;99.90
24252;DHT22;12380;51.118;4.176;2023-07-02T02:03:35;16.70;99.90
24252;DHT22;12380;51.118;4.176;2023-07-02T02:06:00;16.60;99.90
24252;DHT22;12380;51.118;4.176;2023-07-02T02:08:28;16.70;99.90
24252;DHT22;12380;51.118;4.176;2023-07-02T02:10:54;16.80;99.90
24252;DHT22;12380;51.118;4.176;2023-07-02T02:13:20;16.80;99.90
24252;DHT22;12380;51.118;4.176;2023-07-02T02:15:45;16.70;99.90
24252;DHT22;12380;51.118;4.176;2023-07-02T02:18:11;16.80;99.90
24252;DHT22;12380;51.118;4.176;2023-07-02T02:20:36;16.70;99.90
24252;DHT22;12380;51.118;4.176;2023-07-02T02:23:02;16.50;99.90
24252;DHT22;12380;51.118;4.176;2023-07-02T02:25:28;16.50;99.90
24252;DHT22;12380;51.118;4.176;2023-07-02T02:27:53;16.50;99.90
24252;DHT22;12380;51.118;4.176;2023-07-02T02:30:19;16.50;99.90
24252;DHT22;12380;51.118;4.176;2023-07-02T02:32:47;16.50;99.90
24252;DHT22;12380;51.118;4.176;2023-07-02T02:35:12;16.50;99.90
24252;DHT22;12380;51.118;4.176;2023-07-02T02:37:38;16.40;99.90
24252;DHT22;12380;51.118;4.176;2023-07-02T02:40:06;16.40;99.90
24252;DHT22;12380;51.118;4.176;2023-07-02T02:42:31;16.50;99.90
24252;DHT22;12380;51.118;4.176;2023-07-02T02:44:57;16.40;99.90
24252;DHT22;12380;51.118;4.176;2023-07-02T02:47:23;16.50;99.90
24252;DHT22;12380;51.118;4.176;2023-07-02T02:49:48;16.60;99.90
24252;DHT22;12380;51.118;4.176;2023-07-02T02:52:14;16.60;99.90
24252;DHT22;12380;51.118;4.176;2023-07-02T02:54:40;16.50;99.90
24252;DHT22;12380;51.118;4.176;2023-07-02T02:57:06;16.60;99.90
24252;DHT22;12380;51.118;4.176;2023-07-02T02:59:31;16.60;99.90
24252;DHT22;12380;51.118;4.176;2023-07-02T03:01:57;16.60;99.90
24252;DHT22;12380;51.118;4.176;2023-07-02T03:04:23;16.60;99.90
24252;DHT22;12380;51.118;4.176;2023-07-02T03:06:50;16.50;99.90
24252;DHT22;12380;51.118;4.176;2023-07-02T03:09:17;16.60;99.90
24252;DHT22;12380;51.118;4.176;2023-07-02T03:11:42;16.60;99.90
24252;DHT22;12380;51.118;4.176;2023-07-02T03:14:08;16.60;99.90
24252;DHT22;12380;51.118;4.176;2023-07-02T03:16:33;16.60;99.90
24252;DHT22;12380;51.118;4.176;2023-07-02T03:18:59;16.60;99.90
24252;DHT22;12380;51.118;4.176;2023-07-02T03:21:24;16.60;99.90
24252;DHT22;12380;51.118;4.176;2023-07-02T03:23:50;16.50;99.90
24252;DHT22;12380;51.118;4.176;2023-07-02T03:26:16;16.50;99.90
24252;DHT22;12380;51.118;4.176;2023-07-02T03:28:41;16.50;99.90
24252;DHT22;12380;51.118;4.176;2023-07-02T03:31:07;16.50;99.90
24252;DHT22;12380;51.118;4.176;2023-07-02T03:33:32;16.50;99.90
24252;DHT22;12380;51.118;4.176;2023-07-02T03:36:00;16.40;99.90
24252;DHT22;12380;51.118;4.176;2023-07-02T03:38:26;16.30;99.90
24252;DHT22;12380;51.118;4.176;2023-07-02T03:40:51;16.10;99.90
24252;DHT22;12380;51.118;4.176;2023-07-02T03:43:17;16.30;99.90
24252;DHT22;12380;51.118;4.176;2023-07-02T03:45:42;16.10;99.90
24252;DHT22;12380;51.118;4.176;2023-07-02T03:48:10;16.10;99.90
24252;DHT22;12380;51.118;4.176;2023-07-02T03:50:36;16.20;99.90
24252;DHT22;12380;51.118;4.176;2023-07-02T03:53:04;16.30;99.90
24252;DHT22;12380;51.118;4.176;2023-07-02T03:55:30;16.50;99.90
24252;DHT22;12380;51.118;4.176;2023-07-02T03:57:56;16.50;99.90
24252;DHT22;12380;51.118;4.176;2023-07-02T04:00:21;16.50;99.90
24252;DHT22;12380;51.118;4.176;2023-07-02T04:02:47;16.40;99.90
24252;DHT22;12380;51.118;4.176;2023-07-02T04:05:13;16.40;99.90
24252;DHT22;12380;51.118;4.176;2023-07-02T04:07:38;16.50;99.90
24252;DHT22;12380;51.118;4.176;2023-07-02T04:10:04;16.60;99.90
24252;DHT22;12380;51.118;4.176;2023-07-02T04:12:30;16.50;99.90
24252;DHT22;12380;51.118;4.176;2023-07-02T04:14:58;16.40;99.90
24252;DHT22;12380;51.118;4.176;2023-07-02T04:17:23;16.40;99.90
24252;DHT22;12380;51.118;4.176;2023-07-02T04:19:49;16.30;99.90
24252;DHT22;12380;51.118;4.176;2023-07-02T04:22:15;16.50;99.90
24252;DHT22;12380;51.118;4.176;2023-07-02T04:24:40;16.60;99.90
24252;DHT22;12380;51.118;4.176;2023-07-02T04:27:06;16.60;99.90
24252;DHT22;12380;51.118;4.176;2023-07-02T04:29:31;16.50;99.90
24252;DHT22;12380;51.118;4.176;2023-07-02T04:31:57;16.50;99.90
24252;DHT22;12380;51.118;4.176;2023-07-02T04:34:23;16.50;99.90
24252;DHT22;12380;51.118;4.176;2023-07-02T04:36:48;16.60;99.90
24252;DHT22;12380;51.118;4.176;2023-07-02T04:39:14;16.60;99.90
24252;DHT22;12380;51.118;4.176;2023-07-02T04:41:39;16.50;99.90
24252;DHT22;12380;51.118;4.176;2023-07-02T04:44:05;16.50;99.90
24252;DHT22;12380;51.118;4.176;2023-07-02T04:46:31;16.50;99.90
24252;DHT22;12380;51.118;4.176;2023-07-02T04:48:56;16.60;99.90
24252;DHT22;12380;51.118;4.176;2023-07-02T04:51:22;16.60;99.90
24252;DHT22;12380;51.118;4.176;2023-07-02T04:53:47;16.70;99.90
24252;DHT22;12380;51.118;4.176;2023-07-02T04:56:15;16.70;99.90
24252;DHT22;12380;51.118;4.176;2023-07-02T04:58:41;16.90;99.90
24252;DHT22;12380;51.118;4.176;2023-07-02T05:01:07;16.90;99.90
24252;DHT22;12380;51.118;4.176;2023-07-02T05:03:36;16.70;99.90
24252;DHT22;12380;51.118;4.176;2023-07-02T05:06:02;16.50;99.90
24252;DHT22;12380;51.118;4.176;2023-07-02T05:08:29;16.50;99.90
24252;DHT22;12380;51.118;4.176;2023-07-02T05:10:55;16.60;99.90
24252;DHT22;12380;51.118;4.176;2023-07-02T05:13:21;16.70;99.90
24252;DHT22;12380;51.118;4.176;2023-07-02T05:15:46;16.60;99.90
24252;DHT22;12380;51.118;4.176;2023-07-02T05:18:12;16.70;99.90
24252;DHT22;12380;51.118;4.176;2023-07-02T05:20:37;16.60;99.90
24252;DHT22;12380;51.118;4.176;2023-07-02T05:23:03;16.50;99.90
24252;DHT22;12380;51.118;4.176;2023-07-02T05:25:29;16.80;99.90
24252;DHT22;12380;51.118;4.176;2023-07-02T05:27:54;17.00;99.90
24252;DHT22;12380;51.118;4.176;2023-07-02T05:30:22;17.10;99.90
24252;DHT22;12380;51.118;4.176;2023-07-02T05:32:50;17.10;99.90
24252;DHT22;12380;51.118;4.176;2023-07-02T05:35:18;17.00;99.90
24252;DHT22;12380;51.118;4.176;2023-07-02T05:37:44;17.00;99.90
24252;DHT22;12380;51.118;4.176;2023-07-02T05:40:11;17.20;99.90
24252;DHT22;12380;51.118;4.176;2023-07-02T05:42:36;17.30;99.90
24252;DHT22;12380;51.118;4.176;2023-07-02T05:45:03;17.60;99.90
24252;DHT22;12380;51.118;4.176;2023-07-02T05:47:31;17.70;99.90
24252;DHT22;12380;51.118;4.176;2023-07-02T05:49:56;17.70;99.90
24252;DHT22;12380;51.118;4.176;2023-07-02T05:52:24;17.50;99.90
24252;DHT22;12380;51.118;4.176;2023-07-02T05:54:50;17.40;99.90
24252;DHT22;12380;51.118;4.176;2023-07-02T05:57:18;17.50;99.90
24252;DHT22;12380;51.118;4.176;2023-07-02T05:59:44;17.50;99.90
24252;DHT22;12380;51.118;4.176;2023-07-02T06:02:10;17.40;99.90
24252;DHT22;12380;51.118;4.176;2023-07-02T06:04:35;17.30;99.90
24252;DHT22;12380;51.118;4.176;2023-07-02T06:07:01;17.30;99.90
24252;DHT22;12380;51.118;4.176;2023-07-02T06:09:26;17.40;99.90
24252;DHT22;12380;51.118;4.176;2023-07-02T06:11:52;17.50;99.90
24252;DHT22;12380;51.118;4.176;2023-07-02T06:14:17;17.60;99.90
24252;DHT22;12380;51.118;4.176;2023-07-02T06:16:43;17.40;99.90
24252;DHT22;12380;51.118;4.176;2023-07-02T06:19:09;17.70;99.90
24252;DHT22;12380;51.118;4.176;2023-07-02T06:21:37;17.80;99.90
24252;DHT22;12380;51.118;4.176;2023-07-02T06:24:02;17.80;99.90
24252;DHT22;12380;51.118;4.176;2023-07-02T06:26:30;17.90;99.90
24252;DHT22;12380;51.118;4.176;2023-07-02T06:28:57;17.80;99.90
24252;DHT22;12380;51.118;4.176;2023-07-02T06:31:23;17.80;99.90
24252;DHT22;12380;51.118;4.176;2023-07-02T06:33:49;17.90;99.90
24252;DHT22;12380;51.118;4.176;2023-07-02T06:36:14;17.90;99.90
24252;DHT22;12380;51.118;4.176;2023-07-02T06:38:43;17.90;99.90
24252;DHT22;12380;51.118;4.176;2023-07-02T06:41:11;17.90;99.90
24252;DHT22;12380;51.118;4.176;2023-07-02T06:43:41;18.00;99.90
24252;DHT22;12380;51.118;4.176;2023-07-02T06:46:09;18.10;99.90
24252;DHT22;12380;51.118;4.176;2023-07-02T06:48:34;18.20;99.90
24252;DHT22;12380;51.118;4.176;2023-07-02T06:51:00;18.00;99.90
24252;DHT22;12380;51.118;4.176;2023-07-02T06:53:28;17.90;99.90
24252;DHT22;12380;51.118;4.176;2023-07-02T06:55:53;17.90;99.90
24252;DHT22;12380;51.118;4.176;2023-07-02T06:58:21;18.10;99.90
24252;DHT22;12380;51.118;4.176;2023-07-02T07:00:47;18.30;99.90
24252;DHT22;12380;51.118;4.176;2023-07-02T07:03:16;18.30;99.90
24252;DHT22;12380;51.118;4.176;2023-07-02T07:05:42;18.40;99.90
24252;DHT22;12380;51.118;4.176;2023-07-02T07:08:07;18.40;99.90
24252;DHT22;12380;51.118;4.176;2023-07-02T07:10:33;18.60;99.90
24252;DHT22;12380;51.118;4.176;2023-07-02T07:13:02;18.50;99.90
24252;DHT22;12380;51.118;4.176;2023-07-02T07:15:32;18.50;99.90
24252;DHT22;12380;51.118;4.176;2023-07-02T07:17:58;18.30;99.90
24252;DHT22;12380;51.118;4.176;2023-07-02T07:20:24;18.30;99.90
24252;DHT22;12380;51.118;4.176;2023-07-02T07:22:52;18.40;99.90
24252;DHT22;12380;51.118;4.176;2023-07-02T07:25:20;18.30;99.90
24252;DHT22;12380;51.118;4.176;2023-07-02T07:27:45;18.50;99.90
24252;DHT22;12380;51.118;4.176;2023-07-02T07:30:11;18.70;99.90
24252;DHT22;12380;51.118;4.176;2023-07-02T07:32:40;19.10;99.90
24252;DHT22;12380;51.118;4.176;2023-07-02T07:35:10;19.40;99.90
24252;DHT22;12380;51.118;4.176;2023-07-02T07:37:36;19.70;99.90
24252;DHT22;12380;51.118;4.176;2023-07-02T07:40:04;19.80;99.90
24252;DHT22;12380;51.118;4.176;2023-07-02T07:42:31;20.00;99.90
24252;DHT22;12380;51.118;4.176;2023-07-02T07:44:56;20.30;99.90
24252;DHT22;12380;51.118;4.176;2023-07-02T07:47:25;20.40;99.90
24252;DHT22;12380;51.118;4.176;2023-07-02T07:49:50;20.40;99.90
24252;DHT22;12380;51.118;4.176;2023-07-02T07:52:16;20.60;99.90
24252;DHT22;12380;51.118;4.176;2023-07-02T07:54:41;20.40;99.90
24252;DHT22;12380;51.118;4.176;2023-07-02T07:57:07;20.40;99.90
24252;DHT22;12380;51.118;4.176;2023-07-02T07:59:32;20.70;99.90
24252;DHT22;12380;51.118;4.176;2023-07-02T08:01:58;20.90;99.90
24252;DHT22;12380;51.118;4.176;2023-07-02T08:04:24;20.60;99.90
24252;DHT22;12380;51.118;4.176;2023-07-02T08:06:49;20.40;99.90
24252;DHT22;12380;51.118;4.176;2023-07-02T08:09:17;20.40;99.90
24252;DHT22;12380;51.118;4.176;2023-07-02T08:11:46;20.00;99.90
24252;DHT22;12380;51.118;4.176;2023-07-02T08:14:12;20.20;99.90
24252;DHT22;12380;51.118;4.176;2023-07-02T08:16:38;20.20;99.90
24252;DHT22;12380;51.118;4.176;2023-07-02T08:19:06;20.20;99.90
24252;DHT22;12380;51.118;4.176;2023-07-02T08:21:31;20.10;99.90
24252;DHT22;12380;51.118;4.176;2023-07-02T08:23:57;20.40;99.90
24252;DHT22;12380;51.118;4.176;2023-07-02T08:26:23;20.20;99.90
24252;DHT22;12380;51.118;4.176;2023-07-02T08:28:48;20.30;99.90
24252;DHT22;12380;51.118;4.176;2023-07-02T08:31:14;20.70;99.90
24252;DHT22;12380;51.118;4.176;2023-07-02T08:33:40;21.00;99.90
24252;DHT22;12380;51.118;4.176;2023-07-02T08:36:08;21.60;99.90
24252;DHT22;12380;51.118;4.176;2023-07-02T08:38:34;22.00;99.90
24252;DHT22;12380;51.118;4.176;2023-07-02T08:41:00;22.00;99.90
24252;DHT22;12380;51.118;4.176;2023-07-02T08:43:28;22.10;99.90
24252;DHT22;12380;51.118;4.176;2023-07-02T08:45:57;21.80;99.90
24252;DHT22;12380;51.118;4.176;2023-07-02T08:48:22;22.00;99.90
24252;DHT22;12380;51.118;4.176;2023-07-02T08:50:49;22.20;99.90
24252;DHT22;12380;51.118;4.176;2023-07-02T08:53:17;22.50;99.90
24252;DHT22;12380;51.118;4.176;2023-07-02T08:55:43;22.20;99.90
24252;DHT22;12380;51.118;4.176;2023-07-02T08:58:11;21.70;99.90
24252;DHT22;12380;51.118;4.176;2023-07-02T09:00:37;21.50;99.90
24252;DHT22;12380;51.118;4.176;2023-07-02T09:03:13;21.30;99.90
24252;DHT22;12380;51.118;4.176;2023-07-02T09:05:47;20.90;99.90
24252;DHT22;12380;51.118;4.176;2023-07-02T09:08:12;20.80;99.90
24252;DHT22;12380;51.118;4.176;2023-07-02T09:10:50;20.60;99.90
24252;DHT22;12380;51.118;4.176;2023-07-02T09:13:15;20.30;99.90
24252;DHT22;12380;51.118;4.176;2023-07-02T09:15:49;20.20;99.90
24252;DHT22;12380;51.118;4.176;2023-07-02T09:20:40;20.20;99.90
24252;DHT22;12380;51.118;4.176;2023-07-02T09:23:06;20.50;99.90
24252;DHT22;12380;51.118;4.176;2023-07-02T09:25:38;20.70;99.90
24252;DHT22;12380;51.118;4.176;2023-07-02T09:28:17;21.50;99.90
24252;DHT22;12380;51.118;4.176;2023-07-02T09:30:50;22.30;99.90
24252;DHT22;12380;51.118;4.176;2023-07-02T09:33:16;23.00;99.90
24252;DHT22;12380;51.118;4.176;2023-07-02T09:35:44;22.70;99.90
24252;DHT22;12380;51.118;4.176;2023-07-02T09:38:10;22.70;99.90
24252;DHT22;12380;51.118;4.176;2023-07-02T09:40:44;22.10;99.90
24252;DHT22;12380;51.118;4.176;2023-07-02T09:43:11;22.10;99.90
24252;DHT22;12380;51.118;4.176;2023-07-02T09:45:37;21.50;99.90
24252;DHT22;12380;51.118;4.176;2023-07-02T09:48:06;20.80;99.90
24252;DHT22;12380;51.118;4.176;2023-07-02T09:50:31;20.40;99.90
24252;DHT22;12380;51.118;4.176;2023-07-02T09:52:58;20.40;99.90
24252;DHT22;12380;51.118;4.176;2023-07-02T09:55:24;20.50;99.90
24252;DHT22;12380;51.118;4.176;2023-07-02T09:57:52;21.20;99.90
24252;DHT22;12380;51.118;4.176;2023-07-02T10:00:17;22.20;99.90
24252;DHT22;12380;51.118;4.176;2023-07-02T10:02:48;22.40;99.90
24252;DHT22;12380;51.118;4.176;2023-07-02T10:08:11;22.00;99.90
24252;DHT22;12380;51.118;4.176;2023-07-02T10:10:37;22.60;99.90
24252;DHT22;12380;51.118;4.176;2023-07-02T10:13:05;23.20;99.90
24252;DHT22;12380;51.118;4.176;2023-07-02T10:15:31;23.60;99.90
24252;DHT22;12380;51.118;4.176;2023-07-02T10:17:57;24.20;99.90
24252;DHT22;12380;51.118;4.176;2023-07-02T10:20:33;24.50;99.90
24252;DHT22;12380;51.118;4.176;2023-07-02T10:22:59;24.50;99.90
24252;DHT22;12380;51.118;4.176;2023-07-02T10:25:28;24.10;99.90
24252;DHT22;12380;51.118;4.176;2023-07-02T10:27:54;23.90;98.80
24252;DHT22;12380;51.118;4.176;2023-07-02T10:30:29;23.80;99.10
24252;DHT22;12380;51.118;4.176;2023-07-02T10:33:06;23.10;99.20
24252;DHT22;12380;51.118;4.176;2023-07-02T10:35:32;21.90;99.90
24252;DHT22;12380;51.118;4.176;2023-07-02T10:37:59;21.30;99.90
24252;DHT22;12380;51.118;4.176;2023-07-02T10:40:27;20.50;99.90
24252;DHT22;12380;51.118;4.176;2023-07-02T10:42:54;20.50;99.90
24252;DHT22;12380;51.118;4.176;2023-07-02T10:45:20;20.40;99.90
24252;DHT22;12380;51.118;4.176;2023-07-02T10:47:48;20.60;99.90
24252;DHT22;12380;51.118;4.176;2023-07-02T10:50:15;20.80;99.90
24252;DHT22;12380;51.118;4.176;2023-07-02T10:52:42;21.30;99.90
24252;DHT22;12380;51.118;4.176;2023-07-02T10:55:08;22.60;99.90
24252;DHT22;12380;51.118;4.176;2023-07-02T10:57:34;23.40;99.90
24252;DHT22;12380;51.118;4.176;2023-07-02T11:00:03;24.00;99.90
24252;DHT22;12380;51.118;4.176;2023-07-02T11:02:39;24.20;94.50
24252;DHT22;12380;51.118;4.176;2023-07-02T11:05:05;24.20;96.30
24252;DHT22;12380;51.118;4.176;2023-07-02T11:07:32;25.10;96.10
24252;DHT22;12380;51.118;4.176;2023-07-02T11:09:57;24.20;94.30
24252;DHT22;12380;51.118;4.176;2023-07-02T11:12:30;23.10;97.20
24252;DHT22;12380;51.118;4.176;2023-07-02T11:15:07;23.40;99.10
24252;DHT22;12380;51.118;4.176;2023-07-02T11:17:33;24.30;99.90
24252;DHT22;12380;51.118;4.176;2023-07-02T11:20:01;24.40;94.60
24252;DHT22;12380;51.118;4.176;2023-07-02T11:22:32;24.30;94.10
24252;DHT22;12380;51.118;4.176;2023-07-02T11:25:08;23.90;95.80
24252;DHT22;12380;51.118;4.176;2023-07-02T11:27:34;23.60;97.00
24252;DHT22;12380;51.118;4.176;2023-07-02T11:29:59;23.30;95.80
24252;DHT22;12380;51.118;4.176;2023-07-02T11:32:25;22.80;96.50
24252;DHT22;12380;51.118;4.176;2023-07-02T11:34:53;22.80;99.90
24252;DHT22;12380;51.118;4.176;2023-07-02T11:37:20;22.80;96.80
24252;DHT22;12380;51.118;4.176;2023-07-02T11:39:47;22.80;99.90
24252;DHT22;12380;51.118;4.176;2023-07-02T11:42:13;23.40;99.90
24252;DHT22;12380;51.118;4.176;2023-07-02T11:44:38;23.30;99.30
24252;DHT22;12380;51.118;4.176;2023-07-02T11:47:05;23.40;98.60
24252;DHT22;12380;51.118;4.176;2023-07-02T11:49:31;23.90;99.50
24252;DHT22;12380;51.118;4.176;2023-07-02T11:51:56;24.70;98.10
24252;DHT22;12380;51.118;4.176;2023-07-02T11:54:22;24.90;97.00
24252;DHT22;12380;51.118;4.176;2023-07-02T11:56:47;25.10;94.30
24252;DHT22;12380;51.118;4.176;2023-07-02T11:59:13;24.50;93.60
24252;DHT22;12380;51.118;4.176;2023-07-02T12:01:39;23.40;95.20
24252;DHT22;12380;51.118;4.176;2023-07-02T12:04:04;22.80;95.00
24252;DHT22;12380;51.118;4.176;2023-07-02T12:06:33;23.10;99.90
24252;DHT22;12380;51.118;4.176;2023-07-02T12:08:59;23.00;98.60
24252;DHT22;12380;51.118;4.176;2023-07-02T12:11:24;24.00;99.90
24252;DHT22;12380;51.118;4.176;2023-07-02T12:13:52;24.30;96.60
24252;DHT22;12380;51.118;4.176;2023-07-02T12:16:18;23.80;95.20
24252;DHT22;12380;51.118;4.176;2023-07-02T12:18:43;23.20;96.30
24252;DHT22;12380;51.118;4.176;2023-07-02T12:21:09;22.60;95.90
24252;DHT22;12380;51.118;4.176;2023-07-02T12:23:35;22.60;96.00
24252;DHT22;12380;51.118;4.176;2023-07-02T12:26:00;22.90;96.80
24252;DHT22;12380;51.118;4.176;2023-07-02T12:28:26;23.40;93.50
24252;DHT22;12380;51.118;4.176;2023-07-02T12:30:51;23.80;96.70
24252;DHT22;12380;51.118;4.176;2023-07-02T12:33:17;24.00;94.50
24252;DHT22;12380;51.118;4.176;2023-07-02T12:35:42;24.30;94.90
24252;DHT22;12380;51.118;4.176;2023-07-02T12:38:08;24.00;93.20
24252;DHT22;12380;51.118;4.176;2023-07-02T12:40:34;24.10;91.90
24252;DHT22;12380;51.118;4.176;2023-07-02T12:42:59;23.40;92.40
24252;DHT22;12380;51.118;4.176;2023-07-02T12:45:25;23.40;94.30
24252;DHT22;12380;51.118;4.176;2023-07-02T12:47:53;23.30;97.70
24252;DHT22;12380;51.118;4.176;2023-07-02T12:50:19;23.10;96.60
24252;DHT22;12380;51.118;4.176;2023-07-02T12:52:44;23.80;97.50
24252;DHT22;12380;51.118;4.176;2023-07-02T12:55:10;24.50;94.70
24252;DHT22;12380;51.118;4.176;2023-07-02T12:57:35;24.40;93.80
24252;DHT22;12380;51.118;4.176;2023-07-02T13:00:01;24.20;91.90
24252;DHT22;12380;51.118;4.176;2023-07-02T13:02:26;24.20;93.10
24252;DHT22;12380;51.118;4.176;2023-07-02T13:04:52;23.80;94.90
24252;DHT22;12380;51.118;4.176;2023-07-02T13:07:21;23.80;95.10
24252;DHT22;12380;51.118;4.176;2023-07-02T13:09:49;23.70;91.10
24252;DHT22;12380;51.118;4.176;2023-07-02T13:12:14;23.80;95.10
24252;DHT22;12380;51.118;4.176;2023-07-02T13:14:43;24.00;94.80
24252;DHT22;12380;51.118;4.176;2023-07-02T13:17:11;24.20;95.60
24252;DHT22;12380;51.118;4.176;2023-07-02T13:19:39;24.80;95.50
24252;DHT22;12380;51.118;4.176;2023-07-02T13:22:05;23.80;94.60
24252;DHT22;12380;51.118;4.176;2023-07-02T13:24:33;23.90;91.40
24252;DHT22;12380;51.118;4.176;2023-07-02T13:27:02;24.20;92.70
24252;DHT22;12380;51.118;4.176;2023-07-02T13:29:29;24.10;92.80
24252;DHT22;12380;51.118;4.176;2023-07-02T13:31:55;24.00;93.50
24252;DHT22;12380;51.118;4.176;2023-07-02T13:34:21;24.80;93.20
24252;DHT22;12380;51.118;4.176;2023-07-02T13:36:49;24.80;93.50
24252;DHT22;12380;51.118;4.176;2023-07-02T13:39:14;24.30;95.00
24252;DHT22;12380;51.118;4.176;2023-07-02T13:41:40;24.40;95.10
24252;DHT22;12380;51.118;4.176;2023-07-02T13:44:05;25.00;95.60
24252;DHT22;12380;51.118;4.176;2023-07-02T13:46:31;25.70;92.30
24252;DHT22;12380;51.118;4.176;2023-07-02T13:48:59;26.30;91.90
24252;DHT22;12380;51.118;4.176;2023-07-02T13:51:25;25.10;90.30
24252;DHT22;12380;51.118;4.176;2023-07-02T13:53:53;24.60;93.30
24252;DHT22;12380;51.118;4.176;2023-07-02T13:56:20;25.00;93.10
24252;DHT22;12380;51.118;4.176;2023-07-02T13:58:47;25.20;94.10
24252;DHT22;12380;51.118;4.176;2023-07-02T14:01:15;24.60;91.70
24252;DHT22;12380;51.118;4.176;2023-07-02T14:03:45;24.30;91.70
24252;DHT22;12380;51.118;4.176;2023-07-02T14:06:11;24.20;93.00
24252;DHT22;12380;51.118;4.176;2023-07-02T14:08:36;24.70;92.10
24252;DHT22;12380;51.118;4.176;2023-07-02T14:11:02;24.80;93.80
24252;DHT22;12380;51.118;4.176;2023-07-02T14:13:28;25.00;92.40
24252;DHT22;12380;51.118;4.176;2023-07-02T14:15:53;24.70;92.60
24252;DHT22;12380;51.118;4.176;2023-07-02T14:18:19;24.60;91.40
24252;DHT22;12380;51.118;4.176;2023-07-02T14:20:44;24.40;92.10
24252;DHT22;12380;51.118;4.176;2023-07-02T14:23:13;24.40;94.30
24252;DHT22;12380;51.118;4.176;2023-07-02T14:25:38;24.70;94.20
24252;DHT22;12380;51.118;4.176;2023-07-02T14:28:04;24.60;90.60
24252;DHT22;12380;51.118;4.176;2023-07-02T14:30:29;24.40;91.40
24252;DHT22;12380;51.118;4.176;2023-07-02T14:32:55;24.50;91.10
24252;DHT22;12380;51.118;4.176;2023-07-02T14:35:21;23.80;90.70
24252;DHT22;12380;51.118;4.176;2023-07-02T14:37:53;23.50;90.80
24252;DHT22;12380;51.118;4.176;2023-07-02T14:40:20;23.40;93.60
24252;DHT22;12380;51.118;4.176;2023-07-02T14:42:46;23.60;93.00
24252;DHT22;12380;51.118;4.176;2023-07-02T14:45:12;23.30;91.60
24252;DHT22;12380;51.118;4.176;2023-07-02T14:47:37;23.50;92.60
24252;DHT22;12380;51.118;4.176;2023-07-02T14:50:03;23.40;95.60
24252;DHT22;12380;51.118;4.176;2023-07-02T14:52:28;23.50;93.60
24252;DHT22;12380;51.118;4.176;2023-07-02T14:54:56;23.40;93.30
24252;DHT22;12380;51.118;4.176;2023-07-02T14:57:24;23.00;90.20
24252;DHT22;12380;51.118;4.176;2023-07-02T14:59:55;22.90;94.10
24252;DHT22;12380;51.118;4.176;2023-07-02T15:02:23;23.40;95.40
24252;DHT22;12380;51.118;4.176;2023-07-02T15:04:51;23.70;90.90
24252;DHT22;12380;51.118;4.176;2023-07-02T15:07:19;23.80;91.50
24252;DHT22;12380;51.118;4.176;2023-07-02T15:09:48;23.70;90.40
24252;DHT22;12380;51.118;4.176;2023-07-02T15:12:14;23.60;90.90
24252;DHT22;12380;51.118;4.176;2023-07-02T15:14:41;23.90;90.00
24252;DHT22;12380;51.118;4.176;2023-07-02T15:17:07;23.70;88.90
24252;DHT22;12380;51.118;4.176;2023-07-02T15:19:32;23.60;89.60
24252;DHT22;12380;51.118;4.176;2023-07-02T15:21:58;23.60;91.70
24252;DHT22;12380;51.118;4.176;2023-07-02T15:24:26;23.60;91.80
24252;DHT22;12380;51.118;4.176;2023-07-02T15:26:51;23.30;93.50
24252;DHT22;12380;51.118;4.176;2023-07-02T15:29:17;23.30;91.60
24252;DHT22;12380;51.118;4.176;2023-07-02T15:31:42;23.00;91.00
24252;DHT22;12380;51.118;4.176;2023-07-02T15:34:13;22.90;91.50